Time;durP1;ratioP1;P1;durP2;ratioP2;P2;SDS_P1;SDS_P2;PMS_P1;PMS_P2;Temp;Humidity;BMP_temperature;BMP_pressure;BME280_temperature;BME280_humidity;BME280_pressure;Samples;Min_cycle;Max_cycle;Signal;HPM_P1;HPM_P2
2023/10/14 00:01:13;;;;;;;3.85;2.80;;;;;;;;;;5057939;28;20594;-63
2023/10/14 00:03:42;;;;;;;4.40;2.83;;;;;;;;;;5057430;28;20490;-63
2023/10/14 00:06:11;;;;;;;3.00;2.70;;;;;;;;;;5057752;28;20308;-63
2023/10/14 00:08:48;;;;;;;4.47;2.83;;;;;;;;;;5057272;28;20559;-63
2023/10/14 00:11:16;;;;;;;3.35;2.67;;;;;;;;;;5058118;28;20570;-63
2023/10/14 00:13:48;;;;;;;4.32;2.83;;;;;;;;;;5057362;28;20216;-64
2023/10/14 00:16:25;;;;;;;3.20;2.35;;;;;;;;;;5058003;28;20212;-63
2023/10/14 00:18:55;;;;;;;3.80;2.83;;;;;;;;;;5057838;28;20215;-63
2023/10/14 00:21:23;;;;;;;3.88;2.53;;;;;;;;;;5057722;28;20216;-63
2023/10/14 00:23:55;;;;;;;2.97;2.67;;;;;;;;;;5057470;28;20232;-63
2023/10/14 00:26:23;;;;;;;3.15;2.72;;;;;;;;;;5057800;28;20212;-63
2023/10/14 00:28:54;;;;;;;3.85;2.70;;;;;;;;;;5057394;28;20225;-63
2023/10/14 00:31:23;;;;;;;3.08;2.72;;;;;;;;;;5057570;28;20204;-63
2023/10/14 00:33:52;;;;;;;3.20;2.90;;;;;;;;;;5057751;28;20610;-63
2023/10/14 00:36:20;;;;;;;4.18;2.75;;;;;;;;;;5057715;28;20239;-63
2023/10/14 00:38:55;;;;;;;3.25;2.70;;;;;;;;;;5057597;28;20535;-63
2023/10/14 00:41:26;;;;;;;4.00;2.80;;;;;;;;;;5057049;28;20574;-63
2023/10/14 00:43:54;;;;;;;5.55;3.03;;;;;;;;;;5057378;28;20211;-63
2023/10/14 00:46:23;;;;;;;2.63;2.42;;;;;;;;;;5057483;28;20305;-63
2023/10/14 00:48:58;;;;;;;3.22;2.80;;;;;;;;;;5057118;28;20633;-63
2023/10/14 00:51:26;;;;;;;3.00;2.70;;;;;;;;;;5056838;28;20581;-63
2023/10/14 00:54:01;;;;;;;3.10;2.60;;;;;;;;;;5056645;28;20225;-63
2023/10/14 00:56:31;;;;;;;2.80;2.50;;;;;;;;;;5057236;28;20298;-63
2023/10/14 00:58:59;;;;;;;3.33;2.75;;;;;;;;;;5056931;28;20695;-63
2023/10/14 01:01:31;;;;;;;3.15;2.80;;;;;;;;;;5057062;28;20210;-63
2023/10/14 01:04:17;;;;;;;3.90;3.22;;;;;;;;;;5056796;28;20239;-63
2023/10/14 01:06:59;;;;;;;3.15;2.63;;;;;;;;;;5057448;28;20469;-63
2023/10/14 01:09:33;;;;;;;3.42;2.75;;;;;;;;;;5057045;28;20290;-63
2023/10/14 01:12:16;;;;;;;3.45;2.70;;;;;;;;;;5057142;28;20716;-63
2023/10/14 01:14:45;;;;;;;3.75;2.88;;;;;;;;;;5056945;28;20212;-63
2023/10/14 01:17:20;;;;;;;3.50;3.10;;;;;;;;;;5056620;28;20314;-64
2023/10/14 01:19:48;;;;;;;3.33;2.97;;;;;;;;;;5056668;28;20204;-64
2023/10/14 01:22:19;;;;;;;3.35;3.00;;;;;;;;;;5056939;28;20570;-63
2023/10/14 01:24:48;;;;;;;4.45;2.67;;;;;;;;;;5057207;28;20213;-63
2023/10/14 01:27:16;;;;;;;3.50;2.97;;;;;;;;;;5059912;28;20212;-64
2023/10/14 01:29:44;;;;;;;2.97;2.70;;;;;;;;;;5060774;28;20225;-63
2023/10/14 01:32:25;;;;;;;3.03;2.58;;;;;;;;;;5061097;28;20212;-64
2023/10/14 01:34:56;;;;;;;2.80;2.55;;;;;;;;;;5060982;28;20266;-64
2023/10/14 01:37:27;;;;;;;3.88;3.00;;;;;;;;;;5060854;28;20216;-64
2023/10/14 01:40:07;;;;;;;3.33;2.97;;;;;;;;;;5060453;28;20550;-63
2023/10/14 01:42:35;;;;;;;3.72;2.75;;;;;;;;;;5060412;28;20564;-63
2023/10/14 01:45:05;;;;;;;2.63;2.42;;;;;;;;;;5060727;28;20513;-63
2023/10/14 01:47:33;;;;;;;4.97;3.13;;;;;;;;;;5060180;28;20205;-63
2023/10/14 01:50:01;;;;;;;2.75;2.55;;;;;;;;;;5060250;28;20224;-63
2023/10/14 01:52:31;;;;;;;3.15;2.70;;;;;;;;;;5060546;28;20205;-63
2023/10/14 01:55:00;;;;;;;2.85;2.65;;;;;;;;;;5060423;28;20243;-63
2023/10/14 01:57:29;;;;;;;4.00;3.00;;;;;;;;;;5060503;28;20571;-63
2023/10/14 01:59:56;;;;;;;2.80;2.60;;;;;;;;;;5060345;28;20201;-64
2023/10/14 02:02:27;;;;;;;3.05;2.70;;;;;;;;;;5060204;28;20209;-64
2023/10/14 02:04:57;;;;;;;4.53;2.85;;;;;;;;;;5060542;28;20259;-63
2023/10/14 02:07:26;;;;;;;3.00;2.70;;;;;;;;;;5059976;28;20259;-63
2023/10/14 02:09:56;;;;;;;3.65;2.92;;;;;;;;;;5060073;28;20629;-63
2023/10/14 02:12:25;;;;;;;2.72;2.45;;;;;;;;;;5060212;28;20511;-63
2023/10/14 02:14:58;;;;;;;2.80;2.50;;;;;;;;;;5060620;28;20556;-63
2023/10/14 02:17:25;;;;;;;3.10;2.83;;;;;;;;;;5059943;28;20297;-63
2023/10/14 02:19:53;;;;;;;2.63;2.42;;;;;;;;;;5060192;28;20205;-63
2023/10/14 02:22:23;;;;;;;3.47;3.00;;;;;;;;;;5060018;28;20597;-63
2023/10/14 02:24:54;;;;;;;3.58;2.60;;;;;;;;;;5059740;28;20213;-63
2023/10/14 02:27:24;;;;;;;3.67;2.80;;;;;;;;;;5060149;28;20215;-63
2023/10/14 02:29:52;;;;;;;2.63;2.42;;;;;;;;;;5059567;28;20233;-63
2023/10/14 02:32:20;;;;;;;3.05;2.50;;;;;;;;;;5059594;28;20247;-63
2023/10/14 02:34:48;;;;;;;2.88;2.45;;;;;;;;;;5059751;28;20270;-63
2023/10/14 02:37:15;;;;;;;3.30;2.78;;;;;;;;;;5058556;28;20211;-63
2023/10/14 02:39:44;;;;;;;3.88;2.85;;;;;;;;;;5059508;28;20201;-63
2023/10/14 02:42:14;;;;;;;3.10;2.80;;;;;;;;;;5059353;28;20609;-63
2023/10/14 02:44:51;;;;;;;3.10;2.80;;;;;;;;;;5059722;28;20213;-63
2023/10/14 02:47:20;;;;;;;3.30;3.00;;;;;;;;;;5059703;28;20216;-63
2023/10/14 02:49:57;;;;;;;3.30;2.95;;;;;;;;;;5059520;28;20236;-63
2023/10/14 02:52:30;;;;;;;4.18;2.70;;;;;;;;;;5059469;28;20567;-63
2023/10/14 02:55:18;;;;;;;2.72;2.53;;;;;;;;;;5059028;28;20324;-63
2023/10/14 02:57:47;;;;;;;3.25;2.95;;;;;;;;;;5058904;28;20241;-63
2023/10/14 03:00:20;;;;;;;3.63;2.92;;;;;;;;;;5059119;28;20595;-63
2023/10/14 03:02:54;;;;;;;4.20;2.92;;;;;;;;;;5058945;28;20546;-63
2023/10/14 03:08:09;;;;;;;4.72;3.33;;;;;;;;;;5056527;28;20197;-63
2023/10/14 03:10:39;;;;;;;3.92;3.17;;;;;;;;;;5058748;28;20205;-63
2023/10/14 03:13:11;;;;;;;3.20;2.90;;;;;;;;;;5058494;28;20648;-63
2023/10/14 03:15:42;;;;;;;3.20;2.90;;;;;;;;;;5059148;28;20529;-63
2023/10/14 03:18:12;;;;;;;4.15;3.10;;;;;;;;;;5058768;28;20205;-64
2023/10/14 03:20:45;;;;;;;3.80;2.90;;;;;;;;;;5058304;28;20209;-63
2023/10/14 03:23:18;;;;;;;3.40;3.10;;;;;;;;;;5058488;28;20221;-64
2023/10/14 03:25:45;;;;;;;4.22;3.17;;;;;;;;;;5058464;28;20212;-63
2023/10/14 03:28:14;;;;;;;3.50;3.20;;;;;;;;;;5058623;28;20208;-63
2023/10/14 03:30:47;;;;;;;4.22;3.17;;;;;;;;;;5058582;28;20215;-63
2023/10/14 03:33:19;;;;;;;4.60;3.40;;;;;;;;;;5058376;28;20312;-63
2023/10/14 03:35:54;;;;;;;4.38;2.90;;;;;;;;;;5058539;28;20212;-63
2023/10/14 03:38:39;;;;;;;3.50;3.20;;;;;;;;;;5058370;28;20205;-63
2023/10/14 03:41:16;;;;;;;3.83;3.15;;;;;;;;;;5058657;28;20640;-64
2023/10/14 03:43:47;;;;;;;4.13;3.30;;;;;;;;;;5058418;28;20204;-63
2023/10/14 03:46:23;;;;;;;4.55;3.20;;;;;;;;;;5058129;28;20248;-64
2023/10/14 03:48:54;;;;;;;3.33;3.03;;;;;;;;;;5057899;28;20232;-63
2023/10/14 03:51:24;;;;;;;3.78;3.40;;;;;;;;;;5057954;28;20292;-63
2023/10/14 03:53:53;;;;;;;3.60;3.30;;;;;;;;;;5057464;28;20251;-63
2023/10/14 03:56:25;;;;;;;3.53;3.10;;;;;;;;;;5058224;28;20205;-63
2023/10/14 03:58:55;;;;;;;4.10;3.33;;;;;;;;;;5057759;28;20251;-63
2023/10/14 04:01:34;;;;;;;3.50;3.00;;;;;;;;;;5057680;28;20263;-64
2023/10/14 04:04:14;;;;;;;3.38;3.08;;;;;;;;;;5058023;28;20254;-63
2023/10/14 04:06:42;;;;;;;5.63;3.50;;;;;;;;;;5057829;28;20543;-63
2023/10/14 04:09:17;;;;;;;4.05;3.30;;;;;;;;;;5057708;28;20225;-63
2023/10/14 04:11:47;;;;;;;3.58;3.10;;;;;;;;;;5057593;28;20211;-63
2023/10/14 04:14:17;;;;;;;4.38;3.50;;;;;;;;;;5057727;28;20208;-63
2023/10/14 04:17:08;;;;;;;3.85;3.45;;;;;;;;;;5057489;28;20209;-63
2023/10/14 04:19:44;;;;;;;3.85;3.20;;;;;;;;;;5057165;28;20201;-63
2023/10/14 04:22:27;;;;;;;4.38;3.92;;;;;;;;;;5057707;28;20534;-64
2023/10/14 04:25:16;;;;;;;4.53;3.55;;;;;;;;;;5057620;28;20727;-63
2023/10/14 04:27:55;;;;;;;4.82;4.13;;;;;;;;;;5057679;28;20211;-63
2023/10/14 04:30:32;;;;;;;4.72;4.22;;;;;;;;;;5056844;28;20230;-63
2023/10/14 04:33:33;;;;;;;4.93;3.75;;;;;;;;;;5057225;28;20481;-63
2023/10/14 04:36:22;;;;;;;4.43;3.80;;;;;;;;;;5057085;28;20224;-63
2023/10/14 04:39:04;;;;;;;4.90;3.90;;;;;;;;;;5057379;28;20717;-63
2023/10/14 04:41:32;;;;;;;5.30;3.75;;;;;;;;;;5057132;28;20212;-63
2023/10/14 04:44:02;;;;;;;4.03;3.72;;;;;;;;;;5057577;28;20220;-63
2023/10/14 04:46:46;;;;;;;4.18;3.63;;;;;;;;;;5057670;28;20208;-63
2023/10/14 04:49:17;;;;;;;4.72;3.88;;;;;;;;;;5057510;28;20504;-63
2023/10/14 04:51:48;;;;;;;4.53;3.75;;;;;;;;;;5057161;28;20467;-63
2023/10/14 04:54:19;;;;;;;5.05;4.18;;;;;;;;;;5056824;28;20263;-63
2023/10/14 04:56:46;;;;;;;4.30;3.90;;;;;;;;;;5056943;28;20291;-63
2023/10/14 04:59:19;;;;;;;4.88;3.88;;;;;;;;;;5057047;28;20201;-63
2023/10/14 05:01:48;;;;;;;4.30;3.85;;;;;;;;;;5060905;28;20204;-63
2023/10/14 05:04:20;;;;;;;4.53;3.95;;;;;;;;;;5061324;28;20231;-63
2023/10/14 05:06:51;;;;;;;5.18;3.88;;;;;;;;;;5061269;28;20575;-63
2023/10/14 05:09:29;;;;;;;4.75;4.13;;;;;;;;;;5060939;28;20225;-63
2023/10/14 05:11:56;;;;;;;4.30;3.90;;;;;;;;;;5060899;28;20213;-63
2023/10/14 05:14:34;;;;;;;4.35;3.95;;;;;;;;;;5060944;28;20205;-64
2023/10/14 05:17:04;;;;;;;4.28;3.88;;;;;;;;;;5061178;28;20303;-64
2023/10/14 05:19:41;;;;;;;3.80;3.50;;;;;;;;;;5061245;28;20201;-64
2023/10/14 05:22:13;;;;;;;5.07;3.90;;;;;;;;;;5061111;28;20201;-64
2023/10/14 05:24:48;;;;;;;5.53;4.13;;;;;;;;;;5060689;28;20219;-63
2023/10/14 05:27:17;;;;;;;5.10;4.10;;;;;;;;;;5060428;28;20538;-63
2023/10/14 05:29:50;;;;;;;4.97;4.15;;;;;;;;;;5060649;28;20233;-63
2023/10/14 05:32:23;;;;;;;4.55;4.15;;;;;;;;;;5060434;28;20250;-63
2023/10/14 05:34:53;;;;;;;4.20;3.80;;;;;;;;;;5060675;28;20600;-64
2023/10/14 05:37:22;;;;;;;6.32;4.28;;;;;;;;;;5060726;28;20205;-64
2023/10/14 05:39:50;;;;;;;4.97;4.47;;;;;;;;;;5060497;28;20251;-63
2023/10/14 05:42:20;;;;;;;4.85;3.85;;;;;;;;;;5060550;28;20597;-63
2023/10/14 05:44:49;;;;;;;5.10;4.38;;;;;;;;;;5060021;28;20212;-63
2023/10/14 05:47:17;;;;;;;4.15;3.80;;;;;;;;;;5060427;28;20211;-63
2023/10/14 05:49:44;;;;;;;5.22;4.30;;;;;;;;;;5060368;28;20229;-63
2023/10/14 05:52:13;;;;;;;5.30;4.28;;;;;;;;;;5060767;28;20205;-63
2023/10/14 05:54:41;;;;;;;5.10;4.35;;;;;;;;;;5059768;28;20236;-64
2023/10/14 05:57:09;;;;;;;5.15;4.43;;;;;;;;;;5060023;28;20245;-64
2023/10/14 05:59:37;;;;;;;5.43;4.30;;;;;;;;;;5060016;28;20286;-63
2023/10/14 06:02:08;;;;;;;5.00;4.15;;;;;;;;;;5060174;28;20510;-64
2023/10/14 06:04:39;;;;;;;5.10;4.50;;;;;;;;;;5059751;28;20231;-63
2023/10/14 06:07:07;;;;;;;4.90;4.18;;;;;;;;;;5059630;28;20303;-63
2023/10/14 06:09:37;;;;;;;5.90;4.40;;;;;;;;;;5059255;28;20644;-63
2023/10/14 06:12:06;;;;;;;6.40;4.88;;;;;;;;;;5059267;28;20266;-63
2023/10/14 06:14:33;;;;;;;5.55;4.45;;;;;;;;;;5059495;28;20201;-63
2023/10/14 06:17:01;;;;;;;5.03;4.38;;;;;;;;;;5059845;28;20304;-63
2023/10/14 06:19:30;;;;;;;4.72;4.32;;;;;;;;;;5059019;28;20220;-63
2023/10/14 06:21:59;;;;;;;5.90;4.28;;;;;;;;;;5059742;28;20216;-63
2023/10/14 06:24:26;;;;;;;5.68;4.25;;;;;;;;;;5058795;28;20213;-64
2023/10/14 06:27:07;;;;;;;4.47;4.00;;;;;;;;;;5058876;28;20205;-64
2023/10/14 06:29:34;;;;;;;6.00;4.65;;;;;;;;;;5059283;28;20591;-63
2023/10/14 06:32:03;;;;;;;4.93;4.43;;;;;;;;;;5059163;28;20213;-63
2023/10/14 06:34:31;;;;;;;5.57;4.28;;;;;;;;;;5059171;28;20303;-63
2023/10/14 06:37:01;;;;;;;5.25;4.75;;;;;;;;;;5059291;28;20255;-63
2023/10/14 06:39:28;;;;;;;5.75;4.78;;;;;;;;;;5059374;28;20244;-63
2023/10/14 06:41:58;;;;;;;4.55;4.10;;;;;;;;;;5059032;28;20215;-63
2023/10/14 06:44:27;;;;;;;4.88;4.38;;;;;;;;;;5059201;28;20279;-63
2023/10/14 06:46:56;;;;;;;5.38;4.47;;;;;;;;;;5059074;28;20212;-63
2023/10/14 06:49:32;;;;;;;6.22;4.78;;;;;;;;;;5058505;28;20240;-63
2023/10/14 06:51:59;;;;;;;6.50;4.70;;;;;;;;;;5058457;28;20259;-64
2023/10/14 06:54:28;;;;;;;5.88;4.45;;;;;;;;;;5058895;28;20240;-63
2023/10/14 06:57:02;;;;;;;5.10;4.60;;;;;;;;;;5058915;28;20244;-63
2023/10/14 06:59:29;;;;;;;5.55;4.40;;;;;;;;;;5058653;28;20215;-63
2023/10/14 07:01:59;;;;;;;5.38;4.40;;;;;;;;;;5057535;28;20209;-63
2023/10/14 07:04:26;;;;;;;6.22;4.78;;;;;;;;;;5057659;28;20213;-64
2023/10/14 07:06:58;;;;;;;5.68;4.35;;;;;;;;;;5058280;28;20216;-63
2023/10/14 07:09:27;;;;;;;5.00;4.43;;;;;;;;;;5058608;28;20209;-63
2023/10/14 07:11:56;;;;;;;6.07;4.80;;;;;;;;;;5057728;28;20205;-63
2023/10/14 07:14:23;;;;;;;5.47;4.60;;;;;;;;;;5058674;28;20216;-63
2023/10/14 07:16:51;;;;;;;5.00;4.60;;;;;;;;;;5057830;28;20204;-63
2023/10/14 07:19:19;;;;;;;4.88;4.40;;;;;;;;;;5058006;28;20205;-63
2023/10/14 07:21:46;;;;;;;4.53;4.07;;;;;;;;;;5057920;28;20215;-63
2023/10/14 07:24:14;;;;;;;5.93;4.88;;;;;;;;;;5057206;28;20216;-64
2023/10/14 07:26:43;;;;;;;5.30;4.70;;;;;;;;;;5057920;28;20205;-63
2023/10/14 07:29:11;;;;;;;4.88;4.38;;;;;;;;;;5057979;28;20245;-63
2023/10/14 07:31:39;;;;;;;5.03;4.53;;;;;;;;;;5057871;28;20229;-63
2023/10/14 07:34:09;;;;;;;5.25;4.72;;;;;;;;;;5057753;28;20215;-63
2023/10/14 07:36:36;;;;;;;5.18;4.57;;;;;;;;;;5058064;28;20239;-63
2023/10/14 07:39:27;;;;;;;4.82;4.43;;;;;;;;;;5057783;28;20205;-64
2023/10/14 07:41:52;;;;;;;5.63;4.65;;;;;;;;;;5057188;28;20205;-63
2023/10/14 07:44:22;;;;;;;5.60;4.82;;;;;;;;;;5057244;28;20205;-63
2023/10/14 07:46:50;;;;;;;4.65;4.03;;;;;;;;;;5057601;28;20209;-63
2023/10/14 07:49:17;;;;;;;4.85;4.38;;;;;;;;;;5057849;28;20590;-63
2023/10/14 07:51:46;;;;;;;4.55;4.15;;;;;;;;;;5057769;28;20240;-63
2023/10/14 07:54:13;;;;;;;5.03;4.43;;;;;;;;;;5057100;28;20543;-63
2023/10/14 07:56:42;;;;;;;5.15;4.50;;;;;;;;;;5057171;28;20213;-63
2023/10/14 07:59:11;;;;;;;4.53;4.13;;;;;;;;;;5057509;28;20550;-64
2023/10/14 08:01:39;;;;;;;5.82;4.35;;;;;;;;;;5056727;28;20201;-63
2023/10/14 08:04:14;;;;;;;4.50;4.10;;;;;;;;;;5057109;28;20219;-63
2023/10/14 08:06:41;;;;;;;5.40;4.25;;;;;;;;;;5056739;28;20774;-63
2023/10/14 08:09:23;;;;;;;5.05;4.30;;;;;;;;;;5056514;28;20201;-63
2023/10/14 08:11:52;;;;;;;4.38;3.97;;;;;;;;;;5055973;28;20229;-64
2023/10/14 08:14:19;;;;;;;6.20;4.07;;;;;;;;;;5056096;28;20208;-64
2023/10/14 08:16:48;;;;;;;5.00;4.20;;;;;;;;;;5056173;28;20208;-63
2023/10/14 08:19:16;;;;;;;4.50;4.10;;;;;;;;;;5055498;28;20197;-63
2023/10/14 08:21:43;;;;;;;4.75;3.45;;;;;;;;;;5056193;28;20212;-63
2023/10/14 08:24:14;;;;;;;4.53;3.65;;;;;;;;;;5057048;28;20205;-63
2023/10/14 08:26:41;;;;;;;4.20;3.80;;;;;;;;;;5057056;28;20288;-63
2023/10/14 08:29:12;;;;;;;3.67;3.33;;;;;;;;;;5056942;28;20212;-63
2023/10/14 08:31:42;;;;;;;4.22;3.83;;;;;;;;;;5056331;28;20231;-63
2023/10/14 08:34:11;;;;;;;4.95;4.05;;;;;;;;;;5056375;28;20230;-63
2023/10/14 08:36:42;;;;;;;4.22;3.30;;;;;;;;;;5055333;28;20605;-63
2023/10/14 08:39:10;;;;;;;4.10;3.70;;;;;;;;;;5056602;28;20295;-63
2023/10/14 08:41:39;;;;;;;4.15;3.75;;;;;;;;;;5056279;28;20497;-63
2023/10/14 08:44:08;;;;;;;4.45;3.47;;;;;;;;;;5057019;28;20613;-63
2023/10/14 08:46:39;;;;;;;4.45;3.38;;;;;;;;;;5056328;28;20247;-63
2023/10/14 08:49:09;;;;;;;4.90;3.58;;;;;;;;;;5056338;28;20299;-64
2023/10/14 08:51:39;;;;;;;6.00;3.20;;;;;;;;;;5055960;28;20637;-64
2023/10/14 08:54:10;;;;;;;6.53;3.47;;;;;;;;;;5055567;28;20620;-64
2023/10/14 08:56:39;;;;;;;6.00;3.33;;;;;;;;;;5056238;28;20605;-64
2023/10/14 08:59:07;;;;;;;3.97;2.90;;;;;;;;;;5055984;28;20197;-64
2023/10/14 09:01:35;;;;;;;6.70;3.08;;;;;;;;;;5055895;28;20577;-64
2023/10/14 09:04:03;;;;;;;6.65;3.30;;;;;;;;;;5055527;28;20209;-63
2023/10/14 09:06:32;;;;;;;3.97;2.83;;;;;;;;;;5055783;28;20212;-63
2023/10/14 09:09:01;;;;;;;4.82;2.92;;;;;;;;;;5055673;28;20278;-63
2023/10/14 09:11:33;;;;;;;5.10;2.72;;;;;;;;;;5055262;28;20231;-63
2023/10/14 09:14:04;;;;;;;5.22;2.58;;;;;;;;;;5055338;28;20243;-63
2023/10/14 09:16:34;;;;;;;4.75;2.58;;;;;;;;;;5056269;28;20207;-63
2023/10/14 09:19:04;;;;;;;8.38;2.67;;;;;;;;;;5055742;28;20227;-63
2023/10/14 09:21:32;;;;;;;3.53;2.30;;;;;;;;;;5056016;28;20639;-63
2023/10/14 09:24:07;;;;;;;5.68;2.45;;;;;;;;;;5055216;28;20212;-63
2023/10/14 09:26:39;;;;;;;4.00;2.58;;;;;;;;;;5055974;28;20231;-63
2023/10/14 09:29:09;;;;;;;5.50;2.78;;;;;;;;;;5056006;28;20301;-63
2023/10/14 09:31:40;;;;;;;4.57;2.30;;;;;;;;;;5055462;28;20271;-63
2023/10/14 09:34:08;;;;;;;3.65;2.20;;;;;;;;;;5055074;28;20213;-63
2023/10/14 09:36:42;;;;;;;3.55;2.30;;;;;;;;;;5055469;28;20308;-63
2023/10/14 09:39:20;;;;;;;2.97;2.53;;;;;;;;;;5056476;28;20201;-63
2023/10/14 09:41:49;;;;;;;2.88;1.92;;;;;;;;;;5055634;28;20205;-63
2023/10/14 09:44:18;;;;;;;3.28;1.95;;;;;;;;;;5055213;28;20832;-63
2023/10/14 09:46:46;;;;;;;3.38;1.80;;;;;;;;;;5055408;28;20209;-64
2023/10/14 09:49:15;;;;;;;2.67;2.13;;;;;;;;;;5058688;28;20209;-63
2023/10/14 09:51:48;;;;;;;1.85;1.52;;;;;;;;;;5058435;28;20239;-64
2023/10/14 09:54:17;;;;;;;2.60;1.80;;;;;;;;;;5058840;28;20237;-64
2023/10/14 09:56:46;;;;;;;3.20;2.10;;;;;;;;;;5058886;28;20205;-63
2023/10/14 09:59:14;;;;;;;2.35;1.80;;;;;;;;;;5059420;28;20215;-63
2023/10/14 10:01:43;;;;;;;3.60;1.70;;;;;;;;;;5059330;28;20250;-63
2023/10/14 10:04:15;;;;;;;1.92;1.60;;;;;;;;;;5059348;28;20216;-64
2023/10/14 10:06:49;;;;;;;3.33;1.80;;;;;;;;;;5059025;28;20220;-63
2023/10/14 10:09:34;;;;;;;2.47;1.40;;;;;;;;;;5058901;28;20255;-63
2023/10/14 10:12:08;;;;;;;2.22;1.40;;;;;;;;;;5058016;28;20235;-63
2023/10/14 10:14:42;;;;;;;1.50;1.40;;;;;;;;;;5059591;28;20204;-63
2023/10/14 10:17:11;;;;;;;2.40;1.50;;;;;;;;;;5058720;28;20262;-63
2023/10/14 10:19:57;;;;;;;3.20;1.80;;;;;;;;;;5058803;28;20270;-64
2023/10/14 10:22:25;;;;;;;2.10;1.50;;;;;;;;;;5058212;28;20205;-64
2023/10/14 10:24:56;;;;;;;1.80;1.40;;;;;;;;;;5058795;28;20292;-64
2023/10/14 10:27:25;;;;;;;2.10;1.50;;;;;;;;;;5058226;28;20236;-64
2023/10/14 10:29:55;;;;;;;2.42;1.58;;;;;;;;;;5058379;28;20216;-64
2023/10/14 10:32:23;;;;;;;1.88;1.50;;;;;;;;;;5057985;28;20301;-64
2023/10/14 10:35:10;;;;;;;2.53;1.55;;;;;;;;;;5057916;28;20636;-64
2023/10/14 10:37:38;;;;;;;1.90;1.20;;;;;;;;;;5057836;28;20204;-64
2023/10/14 10:40:10;;;;;;;3.30;1.20;;;;;;;;;;5057742;28;20215;-65
2023/10/14 10:42:41;;;;;;;1.65;1.35;;;;;;;;;;5058800;28;20691;-64
2023/10/14 10:45:10;;;;;;;1.70;1.20;;;;;;;;;;5057950;28;20236;-64
2023/10/14 10:47:46;;;;;;;1.63;1.10;;;;;;;;;;5057895;28;20236;-65
2023/10/14 10:50:17;;;;;;;1.10;1.00;;;;;;;;;;5057481;28;20205;-64
2023/10/14 10:52:54;;;;;;;2.00;1.20;;;;;;;;;;5057488;28;20232;-64
2023/10/14 10:55:23;;;;;;;1.73;1.10;;;;;;;;;;5057246;28;20240;-64
2023/10/14 10:57:55;;;;;;;1.13;1.00;;;;;;;;;;5057419;28;20219;-64
2023/10/14 11:00:22;;;;;;;1.63;1.15;;;;;;;;;;5057841;28;20205;-64
2023/10/14 11:02:50;;;;;;;2.03;1.15;;;;;;;;;;5057907;28;20204;-64
2023/10/14 11:05:24;;;;;;;1.10;1.00;;;;;;;;;;5057524;28;20236;-64
2023/10/14 11:07:53;;;;;;;1.85;1.10;;;;;;;;;;5057400;28;20197;-65
2023/10/14 11:10:23;;;;;;;1.48;0.88;;;;;;;;;;5057657;28;20201;-64
2023/10/14 11:12:52;;;;;;;1.33;0.90;;;;;;;;;;5057299;28;20264;-64
2023/10/14 11:15:21;;;;;;;1.02;0.90;;;;;;;;;;5056718;28;20205;-64
2023/10/14 11:17:52;;;;;;;1.40;1.10;;;;;;;;;;5057322;28;20205;-64
2023/10/14 11:20:20;;;;;;;1.45;0.80;;;;;;;;;;5057609;28;20204;-64
2023/10/14 11:22:49;;;;;;;1.10;1.00;;;;;;;;;;5056615;28;20201;-65
2023/10/14 11:25:19;;;;;;;1.23;1.05;;;;;;;;;;5056308;28;20205;-64
2023/10/14 11:27:46;;;;;;;1.58;0.80;;;;;;;;;;5056697;28;20573;-64
2023/10/14 11:30:14;;;;;;;1.60;1.00;;;;;;;;;;5057068;28;20291;-64
2023/10/14 11:32:49;;;;;;;1.15;0.90;;;;;;;;;;5056409;28;20618;-62
2023/10/14 11:35:18;;;;;;;0.95;0.90;;;;;;;;;;5056523;28;20205;-63
2023/10/14 11:37:50;;;;;;;0.95;0.80;;;;;;;;;;5056707;28;20710;-63
2023/10/14 11:40:17;;;;;;;2.25;1.23;;;;;;;;;;5055915;28;20244;-63
2023/10/14 11:42:46;;;;;;;1.40;1.10;;;;;;;;;;5056360;28;20201;-63
2023/10/14 11:45:17;;;;;;;2.75;0.90;;;;;;;;;;5056981;28;20480;-63
2023/10/14 11:47:45;;;;;;;0.93;0.80;;;;;;;;;;5056583;28;20222;-63
2023/10/14 11:50:14;;;;;;;1.27;0.90;;;;;;;;;;5056287;28;20201;-63
2023/10/14 11:52:43;;;;;;;1.58;0.80;;;;;;;;;;5056943;28;20330;-63
2023/10/14 11:55:14;;;;;;;1.65;1.08;;;;;;;;;;5056241;28;20245;-63
2023/10/14 11:57:42;;;;;;;1.65;0.75;;;;;;;;;;5056251;28;20204;-64
2023/10/14 12:00:11;;;;;;;1.85;1.00;;;;;;;;;;5056574;28;20579;-64
2023/10/14 12:02:40;;;;;;;1.00;0.90;;;;;;;;;;5056255;28;20205;-63
2023/10/14 12:05:08;;;;;;;1.42;1.00;;;;;;;;;;5055590;28;20205;-64
2023/10/14 12:07:37;;;;;;;1.27;0.93;;;;;;;;;;5055411;28;20740;-64
2023/10/14 12:10:06;;;;;;;1.63;1.00;;;;;;;;;;5054854;28;20924;-63
2023/10/14 12:12:33;;;;;;;1.40;0.90;;;;;;;;;;5056023;28;20229;-64
2023/10/14 12:15:05;;;;;;;1.30;0.77;;;;;;;;;;5056182;28;20212;-63
2023/10/14 12:17:32;;;;;;;1.20;0.85;;;;;;;;;;5055881;28;20614;-63
2023/10/14 12:20:04;;;;;;;1.75;0.90;;;;;;;;;;5056008;28;20205;-63
2023/10/14 12:22:32;;;;;;;0.80;0.77;;;;;;;;;;5056629;28;20282;-63
2023/10/14 12:25:02;;;;;;;0.90;0.80;;;;;;;;;;5055987;28;20590;-63
2023/10/14 12:27:29;;;;;;;0.82;0.60;;;;;;;;;;5055764;28;20213;-64
2023/10/14 12:30:00;;;;;;;1.17;0.90;;;;;;;;;;5055895;28;20201;-63
2023/10/14 12:32:30;;;;;;;0.98;0.80;;;;;;;;;;5055150;28;20228;-63
2023/10/14 12:34:58;;;;;;;1.08;0.80;;;;;;;;;;5055010;28;20216;-63
2023/10/14 12:37:28;;;;;;;1.17;0.80;;;;;;;;;;5055383;28;20209;-63
2023/10/14 12:40:04;;;;;;;1.85;0.80;;;;;;;;;;5055648;28;20212;-64
2023/10/14 12:42:46;;;;;;;0.85;0.80;;;;;;;;;;5055630;28;20323;-63
2023/10/14 12:45:15;;;;;;;1.40;0.90;;;;;;;;;;5055524;28;20204;-63
2023/10/14 12:47:46;;;;;;;1.52;1.00;;;;;;;;;;5055211;28;20197;-63
2023/10/14 12:50:15;;;;;;;0.98;0.80;;;;;;;;;;5055203;28;20526;-64
2023/10/14 12:52:42;;;;;;;1.30;0.80;;;;;;;;;;5054671;28;20236;-63
2023/10/14 12:55:17;;;;;;;1.17;1.00;;;;;;;;;;5054943;28;20239;-64
2023/10/14 12:57:46;;;;;;;1.13;0.82;;;;;;;;;;5055136;28;20200;-64
2023/10/14 13:00:19;;;;;;;0.98;0.80;;;;;;;;;;5054732;28;20685;-64
2023/10/14 13:02:47;;;;;;;1.10;0.80;;;;;;;;;;5054142;28;20295;-64
2023/10/14 13:05:18;;;;;;;1.48;0.90;;;;;;;;;;5054728;28;20211;-65
2023/10/14 13:07:46;;;;;;;1.90;0.85;;;;;;;;;;5054372;28;20212;-65
2023/10/14 13:10:18;;;;;;;1.20;0.80;;;;;;;;;;5054410;28;20219;-64
2023/10/14 13:12:50;;;;;;;1.13;0.82;;;;;;;;;;5055268;28;20224;-64
2023/10/14 13:15:25;;;;;;;0.68;0.60;;;;;;;;;;5055241;28;20267;-64
2023/10/14 13:17:56;;;;;;;1.10;0.77;;;;;;;;;;5054700;28;20204;-64
2023/10/14 13:20:26;;;;;;;1.73;1.00;;;;;;;;;;5055363;28;20295;-64
2023/10/14 13:22:54;;;;;;;0.73;0.65;;;;;;;;;;5058625;28;20200;-64
2023/10/14 13:25:22;;;;;;;1.25;0.90;;;;;;;;;;5058328;28;20212;-65
2023/10/14 13:27:52;;;;;;;1.52;0.70;;;;;;;;;;5058701;28;20258;-65
2023/10/14 13:30:22;;;;;;;1.33;0.70;;;;;;;;;;5058831;28;20664;-65
2023/10/14 13:32:53;;;;;;;0.98;0.80;;;;;;;;;;5058180;28;20317;-65
2023/10/14 13:35:20;;;;;;;2.20;0.70;;;;;;;;;;5057866;28;20582;-65
2023/10/14 13:37:49;;;;;;;0.77;0.75;;;;;;;;;;5058075;28;20213;-65
2023/10/14 13:40:20;;;;;;;1.38;0.70;;;;;;;;;;5058391;28;20201;-65
2023/10/14 13:42:49;;;;;;;2.38;0.95;;;;;;;;;;5058312;28;20204;-65
2023/10/14 13:45:18;;;;;;;0.93;0.70;;;;;;;;;;5057563;28;20213;-64
2023/10/14 13:47:45;;;;;;;1.25;0.63;;;;;;;;;;5058027;28;20205;-65
2023/10/14 13:50:20;;;;;;;0.98;0.88;;;;;;;;;;5058353;28;20205;-65
2023/10/14 13:52:51;;;;;;;1.90;0.82;;;;;;;;;;5057611;28;20520;-65
2023/10/14 13:55:19;;;;;;;0.70;0.70;;;;;;;;;;5057395;28;20699;-65
2023/10/14 13:57:47;;;;;;;1.70;0.70;;;;;;;;;;5057824;28;20603;-65
2023/10/14 14:00:18;;;;;;;1.23;0.70;;;;;;;;;;5057207;28;20201;-64
2023/10/14 14:02:48;;;;;;;1.10;0.80;;;;;;;;;;5056963;28;20241;-64
2023/10/14 14:05:18;;;;;;;1.10;0.80;;;;;;;;;;5056690;28;20229;-64
2023/10/14 14:07:55;;;;;;;0.80;0.65;;;;;;;;;;5056516;28;20208;-64
2023/10/14 14:10:23;;;;;;;1.00;0.77;;;;;;;;;;5057449;28;20196;-64
2023/10/14 14:12:53;;;;;;;1.13;0.77;;;;;;;;;;5056900;28;20316;-64
2023/10/14 14:15:20;;;;;;;1.23;0.70;;;;;;;;;;5056878;28;20411;-64
2023/10/14 14:17:49;;;;;;;0.68;0.60;;;;;;;;;;5057658;28;20197;-64
2023/10/14 14:20:17;;;;;;;0.52;0.52;;;;;;;;;;5057558;28;20537;-65
2023/10/14 14:22:44;;;;;;;0.60;0.52;;;;;;;;;;5056639;28;20233;-64
2023/10/14 14:25:13;;;;;;;0.70;0.60;;;;;;;;;;5056651;28;20259;-64
2023/10/14 14:27:42;;;;;;;1.17;0.70;;;;;;;;;;5056858;28;20259;-64
2023/10/14 14:30:12;;;;;;;0.95;0.70;;;;;;;;;;5057614;28;20264;-64
2023/10/14 14:32:39;;;;;;;0.95;0.75;;;;;;;;;;5055456;28;20229;-64
2023/10/14 14:35:09;;;;;;;1.20;0.70;;;;;;;;;;5057284;28;20212;-65
2023/10/14 14:37:37;;;;;;;0.95;0.80;;;;;;;;;;5038918;28;20255;-64
2023/10/14 14:40:13;;;;;;;0.85;0.82;;;;;;;;;;5056689;28;20205;-64
2023/10/14 14:42:44;;;;;;;1.25;0.70;;;;;;;;;;5056464;28;20307;-65
2023/10/14 14:45:15;;;;;;;1.27;0.90;;;;;;;;;;5055959;28;20517;-64
2023/10/14 14:47:43;;;;;;;1.30;0.73;;;;;;;;;;5056333;28;20216;-64
2023/10/14 14:50:15;;;;;;;1.75;0.93;;;;;;;;;;5055940;28;20299;-64
2023/10/14 14:52:43;;;;;;;1.23;0.70;;;;;;;;;;5056330;28;20531;-64
2023/10/14 14:55:14;;;;;;;1.10;0.77;;;;;;;;;;5056462;28;20263;-64
2023/10/14 14:57:44;;;;;;;0.88;0.60;;;;;;;;;;5056246;28;20715;-65
2023/10/14 15:00:14;;;;;;;1.08;0.85;;;;;;;;;;5055978;28;20205;-65
2023/10/14 15:02:42;;;;;;;1.63;0.80;;;;;;;;;;5055440;28;20232;-64
2023/10/14 15:05:14;;;;;;;1.23;0.80;;;;;;;;;;5056447;28;20216;-64
2023/10/14 15:07:42;;;;;;;0.88;0.73;;;;;;;;;;5056499;28;20224;-64